This is the latest recevied weather packets stored in our database for station/object 9W2CHF-3. If no packets are shown the sender has not sent any weather packets the latest 10 day(s).
| Time | Temp. | Humidity | Pressure | Rain* | Wind** | Luminosity | Snow |
|---|---|---|---|---|---|---|---|
| 1777987294 | 31.11° C | 83% | 1009.4 hPa | - | - | - | - |
| 1777986093 | 31.11° C | 82% | 1009.3 hPa | - | - | - | - |
| 1777984895 | 31.67° C | 81% | 1009.3 hPa | - | - | - | - |
| 1777983693 | 32.22° C | 77% | 1009 hPa | - | - | - | - |
| 1777982493 | 35.56° C | 70% | 1008.5 hPa | - | - | - | - |
| 1777981293 | 33.89° C | 72% | 1008.2 hPa | - | - | - | - |
| 1777980097 | 32.78° C | 76% | 1008.3 hPa | - | - | - | - |
| 1777978893 | 33.89° C | 75% | 1008.2 hPa | - | - | - | - |
| 1777977693 | 33.89° C | 72% | 1008 hPa | - | - | - | - |
| 1777976747 | 33.33° C | 70% | 1007.6 hPa | - | - | - | - |
| 1777975294 | 33.89° C | 67% | 1007.6 hPa | - | - | - | - |
| 1777974099 | 35° C | 66% | 1007.2 hPa | - | - | - | - |
| 1777972897 | 35° C | 62% | 1007 hPa | - | - | - | - |
| 1777971693 | 37.78° C | 51% | 1007 hPa | - | - | - | - |
| 1777970493 | 37.78° C | 51% | 1007.2 hPa | - | - | - | - |
| 1777969294 | 40° C | 48% | 1007.1 hPa | - | - | - | - |
| 1777968093 | 41.11° C | 43% | 1007.2 hPa | - | - | - | - |
| 1777966893 | 40.56° C | 45% | 1007.1 hPa | - | - | - | - |
| 1777965692 | 40.56° C | 46% | 1007.4 hPa | - | - | - | - |
| 1777964492 | 39.44° C | 48% | 1007.7 hPa | - | - | - | - |
| 1777963292 | 38.89° C | 50% | 1008 hPa | - | - | - | - |
| 1777962092 | 41.11° C | 47% | 1008.3 hPa | - | - | - | - |
| 1777960892 | 40.56° C | 49% | 1008.6 hPa | - | - | - | - |
| 1777959881 | 38.89° C | 55% | 1009.2 hPa | - | - | - | - |
| 1777955223 | 40° C | 48% | 1010.3 hPa | - | - | - | - |
* Rain since midnight (hover to see other rain measurements)
** Current wind speed in m/s (hover to see current wind gust speed)